Time;durP1;ratioP1;P1;durP2;ratioP2;P2;SDS_P1;SDS_P2;PMS_P1;PMS_P2;Temp;Humidity;BMP_temperature;BMP_pressure;BME280_temperature;BME280_humidity;BME280_pressure;Samples;Min_cycle;Max_cycle;Signal;HPM_P1;HPM_P2
2022/08/19 00:01:29;;;;;;;1999.90;999.90;;;15.70;1.00;;;;;;5151962;27;19997;-82
2022/08/19 00:04:01;;;;;;;1999.90;999.90;;;15.60;1.00;;;;;;5151682;27;20125;-82
2022/08/19 00:06:28;;;;;;;1999.90;999.90;;;15.60;1.00;;;;;;5133836;27;20078;-90
2022/08/19 00:08:55;;;;;;;1999.90;999.90;;;15.60;2.90;;;;;;5154811;27;20046;-82
2022/08/19 00:11:21;;;;;;;1999.90;970.65;;;15.60;25.60;;;;;;5134715;27;20481;-85
2022/08/19 00:13:48;;;;;;;1999.90;960.60;;;15.60;36.80;;;;;;5153105;27;20042;-82
2022/08/19 00:16:15;;;;;;;1999.90;869.67;;;15.60;62.20;;;;;;5137894;27;20047;-83
2022/08/19 00:18:41;;;;;;;1999.90;999.90;;;15.60;64.40;;;;;;5137145;27;20047;-82
2022/08/19 00:21:07;;;;;;;1999.90;953.63;;;15.50;75.50;;;;;;5133923;27;20073;-82
2022/08/19 00:23:34;;;;;;;1999.90;999.90;;;15.50;61.90;;;;;;5154752;27;20393;-82
2022/08/19 00:26:00;;;;;;;1999.90;832.72;;;15.70;71.70;;;;;;5152175;27;20050;-82
2022/08/19 00:28:26;;;;;;;1999.90;836.55;;;15.50;90.50;;;;;;5151844;27;20521;-82
2022/08/19 00:30:52;;;;;;;1999.90;924.05;;;15.50;97.30;;;;;;5132038;27;20042;-82
2022/08/19 00:33:19;;;;;;;1999.90;795.63;;;15.50;99.90;;;;;;5134260;27;20043;-83
2022/08/19 00:35:44;;;;;;;1999.90;806.00;;;15.50;99.90;;;;;;5151777;27;20074;-82
2022/08/19 00:38:10;;;;;;;1999.90;754.70;;;15.40;99.90;;;;;;5130704;27;20490;-86
2022/08/19 00:40:36;;;;;;;1999.90;855.10;;;15.40;99.90;;;;;;5135293;27;20049;-85
2022/08/19 00:43:07;;;;;;;1999.90;779.70;;;15.40;99.90;;;;;;5123604;27;20431;-82
2022/08/19 00:45:33;;;;;;;1999.90;889.38;;;15.40;99.90;;;;;;5132647;27;20039;-82
2022/08/19 00:48:03;;;;;;;1999.90;927.55;;;15.30;99.90;;;;;;5152798;27;20046;-84
2022/08/19 00:50:30;;;;;;;1999.90;999.90;;;15.30;99.90;;;;;;5110529;27;20479;-82
2022/08/19 00:52:57;;;;;;;1999.90;995.80;;;15.30;99.90;;;;;;5151433;27;20099;-81
2022/08/19 00:55:25;;;;;;;1999.90;999.90;;;15.30;99.90;;;;;;5133408;27;20046;-82
2022/08/19 00:58:06;;;;;;;1999.90;937.17;;;15.20;99.90;;;;;;5136836;27;20043;-83
2022/08/19 01:00:36;;;;;;;1999.90;999.90;;;15.20;99.90;;;;;;5154070;27;20103;-83
2022/08/19 01:03:04;;;;;;;1999.90;999.90;;;15.20;99.90;;;;;;5154872;27;20082;-83
2022/08/19 01:05:31;;;;;;;1975.15;999.90;;;15.10;99.90;;;;;;5152210;27;20089;-83
2022/08/19 01:08:00;;;;;;;1999.90;999.90;;;15.10;99.90;;;;;;5133030;27;20078;-83
2022/08/19 01:10:32;;;;;;;1950.88;999.90;;;15.10;99.90;;;;;;5147599;27;20042;-84
2022/08/19 01:12:59;;;;;;;1999.90;999.90;;;15.00;99.90;;;;;;5149619;27;20071;-84
2022/08/19 01:15:33;;;;;;;1986.82;999.90;;;15.00;99.90;;;;;;5154814;27;20047;-85
2022/08/19 01:18:06;;;;;;;1999.90;944.67;;;15.00;99.90;;;;;;5149155;27;20039;-83
2022/08/19 01:20:34;;;;;;;1835.90;903.97;;;15.00;99.90;;;;;;5133971;27;20054;-83
2022/08/19 01:23:00;;;;;;;1999.90;999.90;;;15.00;99.90;;;;;;5131171;27;20043;-84
2022/08/19 01:25:43;;;;;;;1999.90;951.40;;;14.90;99.90;;;;;;5154273;27;20039;-84
2022/08/19 01:28:15;;;;;;;1999.90;834.08;;;14.90;99.90;;;;;;5143156;27;20103;-88
2022/08/19 01:30:43;;;;;;;1999.90;999.90;;;14.90;99.90;;;;;;5125003;27;20407;-83
2022/08/19 01:33:08;;;;;;;1999.90;999.90;;;14.90;99.90;;;;;;5131246;27;20051;-84
2022/08/19 01:35:35;;;;;;;1999.90;953.25;;;14.90;99.90;;;;;;5135761;27;20070;-83
2022/08/19 01:38:07;;;;;;;1986.13;875.38;;;14.80;99.90;;;;;;5127265;27;20050;-84
2022/08/19 01:40:35;;;;;;;1904.45;878.92;;;14.90;99.90;;;;;;5134619;27;20043;-82
2022/08/19 01:43:02;;;;;;;1999.90;948.88;;;14.80;1.00;;;;;;5131439;27;20053;-83
2022/08/19 01:45:30;;;;;;;1896.30;981.20;;;14.80;1.00;;;;;;5131272;27;20046;-84
2022/08/19 01:47:56;;;;;;;1999.90;999.90;;;14.80;1.00;;;;;;5127815;27;20293;-87
2022/08/19 01:50:22;;;;;;;1999.90;999.90;;;14.80;1.00;;;;;;5148478;27;20177;-84
2022/08/19 01:52:48;;;;;;;1999.90;961.50;;;14.80;1.00;;;;;;5133548;27;20565;-83
2022/08/19 01:55:17;;;;;;;1999.90;877.17;;;14.70;1.00;;;;;;5133283;27;20058;-88
2022/08/19 01:57:49;;;;;;;1960.30;927.90;;;14.80;1.00;;;;;;5150014;27;20039;-84
2022/08/19 02:00:18;;;;;;;1999.90;904.28;;;14.80;1.00;;;;;;5146633;27;20034;-89
2022/08/19 02:02:43;;;;;;;1999.90;980.08;;;14.80;99.90;;;;;;5128298;27;20050;-83
2022/08/19 02:05:10;;;;;;;1999.90;992.70;;;14.80;99.90;;;;;;5150596;27;20049;-83
2022/08/19 02:07:37;;;;;;;1998.15;948.80;;;14.80;99.90;;;;;;5134101;27;20475;-83
2022/08/19 02:10:09;;;;;;;1999.90;999.90;;;14.80;99.90;;;;;;5095489;27;20050;-83
2022/08/19 02:12:35;;;;;;;1999.90;956.08;;;14.80;85.90;;;;;;5131159;27;20038;-83
2022/08/19 02:15:02;;;;;;;1999.90;913.28;;;14.80;68.80;;;;;;5130264;27;20043;-83
2022/08/19 02:17:28;;;;;;;1999.90;999.90;;;14.80;51.30;;;;;;5153471;27;20043;-84
2022/08/19 02:19:56;;;;;;;1999.90;964.65;;;14.80;34.60;;;;;;5129607;27;20487;-83
2022/08/19 02:22:22;;;;;;;1999.90;950.95;;;14.70;16.70;;;;;;5147176;27;20034;-84
2022/08/19 02:24:48;;;;;;;1999.90;945.17;;;14.80;99.90;;;;;;5147904;27;20072;-88
2022/08/19 02:27:14;;;;;;;1999.90;985.25;;;14.80;99.90;;;;;;5150317;27;20047;-83
2022/08/19 02:29:40;;;;;;;1999.90;967.40;;;14.90;99.90;;;;;;5115262;27;20074;-84
2022/08/19 02:32:07;;;;;;;1999.90;945.55;;;15.90;99.90;;;;;;5150960;27;20042;-83
2022/08/19 02:34:34;;;;;;;1999.90;955.50;;;14.90;75.00;;;;;;5153723;27;20081;-82
2022/08/19 02:37:00;;;;;;;1999.90;953.88;;;14.90;99.90;;;;;;5148999;27;20046;-83
2022/08/19 02:39:26;;;;;;;1999.90;999.90;;;14.80;99.90;;;;;;5149771;27;20047;-84
2022/08/19 02:41:51;;;;;;;1999.90;999.90;;;14.90;99.90;;;;;;5148634;27;20034;-83
2022/08/19 02:44:17;;;;;;;1999.90;999.90;;;15.10;99.90;;;;;;5153262;27;20394;-83
2022/08/19 02:46:46;;;;;;;1999.90;999.90;;;14.90;99.90;;;;;;5147665;27;20050;-84
2022/08/19 02:49:12;;;;;;;1999.90;999.90;;;14.90;99.90;;;;;;5153274;27;20046;-83
2022/08/19 02:51:40;;;;;;;1999.90;999.90;;;14.90;99.90;;;;;;5140687;27;20047;-84
2022/08/19 02:54:08;;;;;;;1999.90;999.90;;;14.90;99.90;;;;;;5133948;27;20057;-83
2022/08/19 02:56:35;;;;;;;1999.90;999.90;;;14.90;99.90;;;;;;5150418;27;20167;-83
2022/08/19 02:59:02;;;;;;;1999.90;999.90;;;14.90;1.00;;;;;;5130671;27;20039;-88
2022/08/19 03:01:30;;;;;;;1999.90;999.90;;;14.80;99.90;;;;;;5148591;27;20068;-83
2022/08/19 03:03:59;;;;;;;1999.90;999.90;;;14.80;99.90;;;;;;5132792;27;20045;-83
2022/08/19 03:06:25;;;;;;;1999.90;999.90;;;14.80;99.90;;;;;;5150585;27;20113;-83
2022/08/19 03:08:52;;;;;;;1999.90;999.90;;;14.80;99.90;;;;;;5129653;27;20429;-83
2022/08/19 03:11:26;;;;;;;1999.90;999.90;;;15.00;99.90;;;;;;5152047;27;20474;-83
2022/08/19 03:13:53;;;;;;;1999.90;999.90;;;14.90;99.90;;;;;;5133064;27;20031;-85
2022/08/19 03:16:22;;;;;;;1999.90;999.90;;;15.10;99.90;;;;;;5153769;27;20042;-87
2022/08/19 03:18:48;;;;;;;1999.90;999.90;;;14.80;99.90;;;;;;5135627;27;20038;-90
2022/08/19 03:21:23;;;;;;;1999.90;999.90;;;14.80;69.00;;;;;;5134716;27;20047;-83
2022/08/19 03:23:49;;;;;;;1999.90;999.90;;;14.80;26.10;;;;;;5118465;27;20050;-83
2022/08/19 03:26:15;;;;;;;1999.90;952.80;;;14.80;1.00;;;;;;5155165;27;20038;-83
2022/08/19 03:28:42;;;;;;;1999.90;856.60;;;14.80;1.00;;;;;;5150064;27;20088;-84
2022/08/19 03:31:12;;;;;;;1999.90;999.90;;;14.70;99.90;;;;;;5149648;27;20409;-84
2022/08/19 03:33:38;;;;;;;1999.90;999.90;;;14.70;99.90;;;;;;5134882;27;20045;-83
2022/08/19 03:36:11;;;;;;;1999.90;999.90;;;14.80;1.00;;;;;;5136309;27;20082;-83
2022/08/19 03:38:42;;;;;;;1999.90;999.90;;;14.80;36.80;;;;;;5136349;27;20050;-84
2022/08/19 03:41:11;;;;;;;1999.90;999.90;;;14.80;42.70;;;;;;5153019;27;20125;-83
2022/08/19 03:43:38;;;;;;;1999.90;999.90;;;14.80;82.90;;;;;;5147664;27;20053;-84
2022/08/19 03:46:25;;;;;;;1999.90;999.90;;;14.80;99.90;;;;;;5133429;27;20046;-83
2022/08/19 03:48:53;;;;;;;1999.90;999.90;;;14.80;99.90;;;;;;5133410;27;20042;-84
2022/08/19 03:51:25;;;;;;;1999.90;999.90;;;14.90;99.90;;;;;;5132010;27;20057;-87
2022/08/19 03:53:52;;;;;;;1999.90;999.90;;;14.90;1.00;;;;;;5131037;27;20490;-84
2022/08/19 03:56:19;;;;;;;1999.90;999.90;;;14.80;41.80;;;;;;5130401;27;20039;-86
2022/08/19 03:58:45;;;;;;;1999.90;999.90;;;14.80;87.50;;;;;;5136245;27;20047;-83
2022/08/19 04:01:18;;;;;;;1999.90;999.90;;;14.80;61.30;;;;;;5136886;27;20059;-88
2022/08/19 04:03:46;;;;;;;1999.90;999.90;;;14.70;1.00;;;;;;5131976;27;20050;-87
2022/08/19 04:06:17;;;;;;;1999.90;870.67;;;14.70;1.00;;;;;;5151381;27;20039;-82
2022/08/19 04:08:44;;;;;;;1999.90;999.90;;;14.70;99.90;;;;;;5147426;27;20108;-88
2022/08/19 04:11:12;;;;;;;1999.90;999.90;;;14.70;99.90;;;;;;5135401;27;20043;-83
2022/08/19 04:13:38;;;;;;;;;;;14.70;99.90;;;;;;5134843;27;20046;-83
2022/08/19 04:16:05;;;;;;;1999.90;999.90;;;14.70;99.90;;;;;;5153647;27;20018;-82
2022/08/19 04:18:32;;;;;;;1999.90;921.90;;;14.70;99.90;;;;;;5137385;27;20502;-83
2022/08/19 04:20:58;;;;;;;1999.90;999.90;;;14.70;99.90;;;;;;5134803;27;20051;-82
2022/08/19 04:23:24;;;;;;;1999.90;954.25;;;14.80;99.90;;;;;;5155390;27;20124;-82
2022/08/19 04:25:50;;;;;;;1999.90;815.10;;;14.60;99.90;;;;;;5147064;27;20079;-84
2022/08/19 04:28:16;;;;;;;1999.90;994.90;;;14.70;99.90;;;;;;5114723;27;20055;-82
2022/08/19 04:30:47;;;;;;;1999.90;926.88;;;14.70;99.90;;;;;;5141858;27;20050;-82
2022/08/19 04:33:15;;;;;;;1999.90;885.63;;;14.70;99.90;;;;;;5154271;27;20249;-83
2022/08/19 04:35:45;;;;;;;1999.90;960.45;;;14.70;47.60;;;;;;5151886;27;20398;-82
2022/08/19 04:38:11;;;;;;;1999.90;952.50;;;14.70;19.70;;;;;;5147782;27;20047;-84
2022/08/19 04:43:28;;;;;;;1999.90;999.90;;;14.70;99.90;;;;;;5152734;27;20551;-82
2022/08/19 04:45:53;;;;;;;1999.90;999.90;;;14.80;99.90;;;;;;5119538;27;20094;-83
2022/08/19 04:48:25;;;;;;;1999.90;999.90;;;14.70;99.90;;;;;;5148059;27;20051;-83
2022/08/19 04:50:56;;;;;;;1999.90;999.90;;;14.80;99.90;;;;;;5130950;27;20055;-82
2022/08/19 04:53:28;;;;;;;1999.90;999.90;;;14.80;99.90;;;;;;5154171;27;20051;-83
2022/08/19 04:55:55;;;;;;;1999.90;999.90;;;14.90;99.90;;;;;;5140727;27;20046;-84
2022/08/19 04:58:20;;;;;;;1999.90;999.90;;;14.80;99.90;;;;;;5143053;27;20125;-83
2022/08/19 05:00:46;;;;;;;1999.90;999.90;;;14.80;99.90;;;;;;5151022;27;20038;-83
2022/08/19 05:03:12;;;;;;;1999.90;999.90;;;14.80;99.90;;;;;;5135803;27;20031;-82
2022/08/19 05:05:41;;;;;;;1999.90;999.90;;;14.70;99.90;;;;;;5153197;27;20061;-83
2022/08/19 05:08:07;;;;;;;1999.90;999.90;;;14.70;99.90;;;;;;5132833;27;20077;-82
2022/08/19 05:10:36;;;;;;;1999.90;999.90;;;14.80;99.90;;;;;;5152177;27;20455;-87
2022/08/19 05:13:02;;;;;;;1999.90;999.90;;;14.80;76.40;;;;;;5133814;27;20045;-83
2022/08/19 05:15:27;;;;;;;1999.90;999.90;;;14.70;1.00;;;;;;5118730;27;20086;-82
2022/08/19 05:23:22;;;;;;;1999.90;999.90;;;14.80;99.90;;;;;;5140637;27;20451;-86
2022/08/19 05:25:50;;;;;;;1999.90;999.90;;;14.80;99.90;;;;;;5148460;27;20035;-84
2022/08/19 05:28:15;;;;;;;1999.90;999.90;;;14.90;99.90;;;;;;5145998;27;20084;-83
2022/08/19 05:30:43;;;;;;;1999.90;999.90;;;15.10;99.90;;;;;;5153756;27;20042;-83
2022/08/19 05:33:09;;;;;;;1999.90;999.90;;;15.10;99.90;;;;;;5137232;27;20042;-83
2022/08/19 05:35:37;;;;;;;1999.90;999.90;;;15.10;99.90;;;;;;5152789;27;20466;-83
2022/08/19 05:38:03;;;;;;;1999.90;999.90;;;15.20;99.90;;;;;;5153556;27;20434;-85
2022/08/19 05:40:29;;;;;;;1999.90;999.90;;;15.30;18.30;;;;;;5123206;27;20082;-84
2022/08/19 05:42:54;;;;;;;1999.90;999.90;;;15.30;99.90;;;;;;5139655;27;20070;-84
2022/08/19 05:45:21;;;;;;;1999.90;991.17;;;15.60;1.00;;;;;;5152163;27;20038;-83
2022/08/19 05:47:48;;;;;;;1999.90;999.90;;;15.60;29.80;;;;;;5135776;27;20039;-83
2022/08/19 05:50:13;;;;;;;1999.90;999.90;;;15.60;48.60;;;;;;5152171;27;20047;-84
2022/08/19 05:52:39;;;;;;;1999.90;999.90;;;15.70;30.00;;;;;;5134634;27;20055;-85
2022/08/19 05:55:06;;;;;;;1999.90;999.90;;;15.70;64.10;;;;;;5134813;27;20391;-83
2022/08/19 05:57:31;;;;;;;1999.90;999.90;;;15.80;99.90;;;;;;5136178;27;20117;-83
2022/08/19 06:00:00;;;;;;;1999.90;999.90;;;15.90;99.90;;;;;;5138340;27;20118;-80
2022/08/19 06:02:30;;;;;;;1999.90;999.90;;;16.00;99.90;;;;;;5147011;27;20171;-84
2022/08/19 06:04:56;;;;;;;1999.90;999.90;;;16.10;99.90;;;;;;5146732;27;20065;-81
2022/08/19 06:07:21;;;;;;;1999.90;999.90;;;16.20;99.90;;;;;;5128908;27;20031;-81
2022/08/19 06:09:47;;;;;;;1999.90;999.90;;;16.20;99.90;;;;;;5125240;27;20045;-86
2022/08/19 06:12:13;;;;;;;1999.90;999.90;;;16.30;99.90;;;;;;5150215;27;20043;-81
2022/08/19 06:14:38;;;;;;;1999.90;999.90;;;16.30;99.90;;;;;;5131605;27;20103;-82
2022/08/19 06:17:04;;;;;;;1846.13;810.00;;;16.40;99.90;;;;;;5151981;27;20138;-83
2022/08/19 06:19:31;;;;;;;1999.90;999.90;;;16.50;99.90;;;;;;5129014;27;20035;-84
2022/08/19 06:21:58;;;;;;;1999.90;999.90;;;16.60;99.90;;;;;;5142842;27;20039;-81
2022/08/19 06:24:26;;;;;;;1999.90;978.30;;;16.70;99.90;;;;;;5147947;27;20050;-81
2022/08/19 06:26:53;;;;;;;;;;;16.60;99.90;;;;;;5145949;27;20167;-79
2022/08/19 06:29:24;;;;;;;1999.90;999.90;;;16.80;99.90;;;;;;5143179;27;20023;-81
2022/08/19 06:31:56;;;;;;;1999.90;999.90;;;16.90;99.90;;;;;;5131105;27;20046;-79
2022/08/19 06:34:22;;;;;;;1999.90;999.90;;;16.90;99.90;;;;;;5130087;27;20133;-79
2022/08/19 06:36:51;;;;;;;1999.90;999.90;;;16.90;99.90;;;;;;5149977;27;20048;-79
2022/08/19 06:39:22;;;;;;;1999.90;999.90;;;16.90;99.90;;;;;;5145963;27;20125;-79
2022/08/19 06:41:49;;;;;;;1999.90;999.90;;;17.00;99.90;;;;;;5142919;27;20039;-79
2022/08/19 06:44:15;;;;;;;1999.90;999.90;;;17.00;99.90;;;;;;5153119;27;20050;-80
2022/08/19 06:46:41;;;;;;;1999.90;999.90;;;17.10;68.70;;;;;;5153164;27;20112;-77
2022/08/19 06:49:11;;;;;;;1999.90;999.90;;;17.20;1.00;;;;;;5151165;27;20046;-78
2022/08/19 06:51:38;;;;;;;1999.90;990.30;;;17.20;1.00;;;;;;5143936;27;20042;-91
2022/08/19 06:54:04;;;;;;;;;;;17.30;99.90;;;;;;5131742;27;20372;-79
2022/08/19 06:56:34;;;;;;;1999.90;999.90;;;18.10;99.90;;;;;;5151112;27;19929;-83
2022/08/19 06:59:10;;;;;;;1999.90;999.90;;;17.60;99.90;;;;;;5154647;27;20486;-79
2022/08/19 07:01:49;;;;;;;1999.90;999.90;;;17.60;99.90;;;;;;5135525;27;20046;-86
2022/08/19 07:04:16;;;;;;;;;;;17.70;63.10;;;;;;5115747;28;20104;-81
2022/08/19 07:06:43;;;;;;;1999.90;999.90;;;17.90;1.00;;;;;;5133583;28;19966;-79
2022/08/19 07:09:11;;;;;;;1999.90;999.90;;;18.00;99.90;;;;;;5133658;28;20054;-79
2022/08/19 07:11:36;;;;;;;1999.90;931.22;;;18.10;73.40;;;;;;5152844;27;20050;-86
2022/08/19 07:14:03;;;;;;;1999.90;999.90;;;18.30;99.90;;;;;;5152591;27;20043;-79
2022/08/19 07:16:29;;;;;;;1999.90;987.00;;;18.40;99.90;;;;;;5153253;27;20491;-80
2022/08/19 07:18:59;;;;;;;1999.90;999.90;;;18.50;99.90;;;;;;5154436;27;20046;-79
2022/08/19 07:21:30;;;;;;;1999.90;898.35;;;18.60;1.00;;;;;;5153586;27;20059;-79
2022/08/19 07:23:58;;;;;;;1999.90;999.90;;;18.70;1.00;;;;;;5140917;27;20538;-83
2022/08/19 07:26:30;;;;;;;1999.90;999.90;;;18.80;1.00;;;;;;5126055;27;20447;-80
2022/08/19 07:28:57;;;;;;;1999.90;788.90;;;18.90;1.00;;;;;;5133963;27;20046;-80
2022/08/19 07:31:26;;;;;;;1999.90;922.72;;;19.50;99.90;;;;;;5134121;27;20030;-80
2022/08/19 07:33:55;;;;;;;1999.90;880.30;;;20.90;1.00;;;;;;5140877;27;20035;-78
2022/08/19 07:36:31;;;;;;;1999.90;999.90;;;22.50;99.90;;;;;;5139624;27;20114;-78
2022/08/19 07:38:59;;;;;;;1999.90;999.90;;;23.80;1.00;;;;;;5150836;27;20113;-82
2022/08/19 07:41:28;;;;;;;1999.90;999.90;;;25.40;1.00;;;;;;5142547;27;20042;-78
2022/08/19 07:43:54;;;;;;;1999.90;999.90;;;26.10;99.90;;;;;;5150582;27;20090;-77
2022/08/19 07:46:20;;;;;;;846.35;779.05;;;26.40;99.90;;;;;;5148786;27;20074;-78
2022/08/19 07:48:48;;;;;;;1000.20;911.25;;;27.30;99.90;;;;;;5151104;27;20082;-78
2022/08/19 07:51:16;;;;;;;846.15;777.65;;;28.40;99.90;;;;;;5141602;27;20052;-77
2022/08/19 07:53:44;;;;;;;1126.05;997.33;;;29.30;99.90;;;;;;5150255;27;20058;-77
2022/08/19 07:56:11;;;;;;;;;;;29.90;99.90;;;;;;5148552;27;20047;-77
2022/08/19 07:58:39;;;;;;;1098.75;963.47;;;30.60;92.70;;;;;;5145868;27;19942;-77
2022/08/19 08:01:07;;;;;;;837.53;767.92;;;31.00;36.30;;;;;;5134719;27;20469;-78
2022/08/19 08:09:26;;;;;;;960.78;878.22;;;30.70;44.20;;;;;;5121014;27;20133;-79
2022/08/19 08:11:56;;;;;;;864.78;794.58;;;30.70;22.10;;;;;;5151973;27;20490;-78
2022/08/19 08:14:47;;;;;;;710.92;656.22;;;30.70;22.60;;;;;;5156241;27;20547;-79
2022/08/19 08:17:17;;;;;;;771.42;709.92;;;31.00;20.00;;;;;;5155586;27;20057;-77
2022/08/19 08:19:44;;;;;;;1002.35;897.13;;;31.50;18.50;;;;;;5156616;27;20420;-78
2022/08/19 08:23:22;;;;;;;987.85;893.45;;;31.30;1.00;;;;;;5136999;27;20054;-77
2022/08/19 08:25:19;;;;;;;1085.32;976.15;;;32.50;1.10;;;;;;5155821;27;20110;-78
2022/08/19 08:27:45;;;;;;;1084.90;975.10;;;32.30;1.00;;;;;;5132032;27;20103;-78
2022/08/19 08:30:15;;;;;;;1031.10;938.87;;;33.00;1.00;;;;;;5137880;27;20046;-77
2022/08/19 08:32:41;;;;;;;853.03;784.65;;;33.70;1.00;;;;;;5136462;27;20676;-78
2022/08/19 08:35:11;;;;;;;833.60;757.03;;;34.10;1.00;;;;;;5156183;27;20046;-78
2022/08/19 08:37:37;;;;;;;696.08;647.08;;;34.20;1.00;;;;;;5154715;27;20049;-79
2022/08/19 08:40:22;;;;;;;1041.07;922.22;;;34.70;1.00;;;;;;5151379;27;20042;-78
2022/08/19 08:43:21;;;;;;;721.47;665.75;;;32.80;1.00;;;;;;5137906;27;20034;-78
2022/08/19 08:46:18;;;;;;;780.42;723.15;;;33.50;1.00;;;;;;5153987;27;20050;-80
2022/08/19 08:49:04;;;;;;;941.45;849.20;;;32.60;1.00;;;;;;5137097;27;20095;-78
2022/08/19 08:51:45;;;;;;;711.90;659.85;;;31.60;1.00;;;;;;5150423;27;20051;-77
2022/08/19 08:54:14;;;;;;;899.92;817.53;;;31.80;1.00;;;;;;5152723;27;20051;-78
2022/08/19 08:56:45;;;;;;;787.70;725.60;;;32.90;1.00;;;;;;5149914;27;20553;-80
2022/08/19 08:59:24;;;;;;;718.40;665.13;;;33.20;1.00;;;;;;5138231;27;20047;-78
2022/08/19 09:01:49;;;;;;;811.28;749.00;;;33.70;1.00;;;;;;5146729;27;20106;-78
2022/08/19 09:04:16;;;;;;;784.20;727.03;;;34.10;1.00;;;;;;5131438;27;20713;-79
2022/08/19 09:06:51;;;;;;;689.53;640.83;;;35.00;1.00;;;;;;5153173;27;20047;-78
2022/08/19 09:09:50;;;;;;;889.22;821.30;;;35.10;1.00;;;;;;5155743;27;20038;-78
2022/08/19 09:12:21;;;;;;;;;;;33.90;1.00;;;;;;5156494;27;20049;-79
2022/08/19 09:15:07;;;;;;;831.13;770.90;;;34.60;1.00;;;;;;5157504;27;19919;-79
2022/08/19 09:17:34;;;;;;;660.38;613.15;;;35.10;1.00;;;;;;5146941;27;20542;-79
2022/08/19 09:20:09;;;;;;;781.50;724.42;;;36.10;1.00;;;;;;5148054;27;20049;-80
2022/08/19 09:22:39;;;;;;;987.05;899.40;;;36.30;1.00;;;;;;5146413;27;20042;-79
2022/08/19 09:25:07;;;;;;;880.03;808.40;;;36.40;1.00;;;;;;5146357;27;20042;-80
2022/08/19 09:27:33;;;;;;;768.08;712.60;;;36.30;1.00;;;;;;5143554;27;20038;-79
2022/08/19 09:29:59;;;;;;;1017.08;923.88;;;35.90;1.00;;;;;;5152713;27;20074;-78
2022/08/19 09:32:26;;;;;;;980.55;889.15;;;36.30;1.00;;;;;;5153989;27;20077;-79
2022/08/19 09:34:55;;;;;;;904.80;828.08;;;36.70;1.00;;;;;;5150098;27;20058;-82
2022/08/19 09:37:21;;;;;;;942.53;856.28;;;36.70;1.00;;;;;;5152896;27;20039;-81
2022/08/19 09:39:47;;;;;;;1083.55;979.45;;;37.00;1.00;;;;;;5149459;27;20050;-79
2022/08/19 09:42:14;;;;;;;856.50;788.65;;;37.50;1.00;;;;;;5150303;27;20526;-80
2022/08/19 09:44:42;;;;;;;996.45;904.83;;;37.60;1.00;;;;;;5148029;27;20085;-80
2022/08/19 09:47:10;;;;;;;1107.53;997.80;;;38.00;1.00;;;;;;5147490;27;20095;-79
2022/08/19 09:49:37;;;;;;;1015.08;920.67;;;37.50;1.00;;;;;;5129929;27;20046;-80
2022/08/19 09:52:03;;;;;;;1077.55;973.03;;;38.00;1.00;;;;;;5150872;27;20059;-79
2022/08/19 09:54:29;;;;;;;1025.13;928.08;;;38.40;1.00;;;;;;5150883;27;20076;-84
2022/08/19 09:56:57;;;;;;;959.50;879.30;;;37.50;1.00;;;;;;5112023;27;20081;-79
2022/08/19 09:59:23;;;;;;;1040.18;942.50;;;38.50;1.00;;;;;;5153947;27;20045;-81
2022/08/19 10:01:51;;;;;;;917.08;834.55;;;39.20;1.00;;;;;;5147295;27;20122;-83
2022/08/19 10:04:16;;;;;;;1022.05;926.15;;;38.70;1.00;;;;;;5145016;27;20050;-79
2022/08/19 10:06:42;;;;;;;1071.25;970.78;;;39.20;1.00;;;;;;5154830;27;20071;-80
2022/08/19 10:09:10;;;;;;;1015.65;921.58;;;39.30;1.00;;;;;;5148864;27;20050;-80
2022/08/19 10:11:39;;;;;;;1065.85;965.20;;;39.30;99.90;;;;;;5150289;27;20054;-83
2022/08/19 10:14:08;;;;;;;1057.40;958.50;;;39.50;1.00;;;;;;5147971;27;20047;-80
2022/08/19 10:16:35;;;;;;;1059.20;959.15;;;39.30;99.90;;;;;;5134265;27;20095;-82
2022/08/19 10:19:01;;;;;;;1010.25;917.60;;;39.70;99.90;;;;;;5142467;27;20062;-84
2022/08/19 10:21:30;;;;;;;1097.80;985.35;;;39.60;99.90;;;;;;5144096;27;20046;-78
2022/08/19 10:23:58;;;;;;;996.83;901.97;;;39.10;99.90;;;;;;5125292;27;20474;-79
2022/08/19 10:26:31;;;;;;;1070.88;970.03;;;37.80;99.90;;;;;;5150834;27;20041;-81
2022/08/19 10:28:58;;;;;;;1036.63;941.88;;;37.90;99.90;;;;;;5147747;27;20077;-78
2022/08/19 10:31:29;;;;;;;1102.40;993.80;;;38.50;99.90;;;;;;5147511;27;20043;-79
2022/08/19 10:33:58;;;;;;;870.10;801.42;;;38.40;99.90;;;;;;5149347;27;20846;-79
2022/08/19 10:36:36;;;;;;;1080.78;978.03;;;38.80;99.90;;;;;;5147700;27;20047;-78
2022/08/19 10:39:07;;;;;;;1064.35;966.75;;;38.20;99.90;;;;;;5149882;27;20035;-81
2022/08/19 10:41:35;;;;;;;935.13;854.38;;;38.60;99.90;;;;;;5149997;27;20410;-79
2022/08/19 10:44:05;;;;;;;783.60;721.50;;;38.90;99.90;;;;;;5149634;27;20114;-79
2022/08/19 10:46:32;;;;;;;982.67;894.22;;;39.30;99.90;;;;;;5132489;27;20183;-81
2022/08/19 10:49:00;;;;;;;953.88;868.15;;;39.60;99.90;;;;;;5149180;27;20039;-82
2022/08/19 10:54:10;;;;;;;1094.22;987.15;;;39.60;99.90;;;;;;5145354;27;20087;-79
2022/08/19 10:56:52;;;;;;;1049.75;947.67;;;39.80;99.90;;;;;;5152557;27;20051;-80
2022/08/19 10:59:21;;;;;;;1039.10;947.85;;;38.30;99.90;;;;;;5150116;27;20054;-84
2022/08/19 11:01:47;;;;;;;945.33;869.15;;;37.90;99.90;;;;;;5150702;27;20047;-81
2022/08/19 11:04:15;;;;;;;819.88;758.35;;;37.30;99.90;;;;;;5150105;27;20043;-79
2022/08/19 11:06:43;;;;;;;850.28;781.95;;;36.20;99.90;;;;;;5127309;27;20046;-79
2022/08/19 11:09:10;;;;;;;852.80;788.92;;;35.30;99.90;;;;;;5133902;27;20072;-79
2022/08/19 11:11:40;;;;;;;865.90;800.17;;;35.20;99.90;;;;;;5149363;27;20406;-83
2022/08/19 11:14:13;;;;;;;807.47;742.28;;;35.20;99.90;;;;;;5150563;27;20536;-80
2022/08/19 11:16:40;;;;;;;993.70;911.88;;;35.60;99.90;;;;;;5152309;27;20046;-79
2022/08/19 11:19:07;;;;;;;848.60;782.08;;;35.50;99.90;;;;;;5152890;27;20047;-80
2022/08/19 11:21:39;;;;;;;937.30;863.38;;;35.30;99.90;;;;;;5150880;27;20050;-79
2022/08/19 11:24:12;;;;;;;907.28;837.13;;;34.80;99.90;;;;;;5153201;27;20046;-79
2022/08/19 11:26:40;;;;;;;1173.07;867.22;;;34.30;99.90;;;;;;5152162;27;20394;-78
2022/08/19 11:29:11;;;;;;;775.55;718.95;;;35.10;99.90;;;;;;5152594;27;20035;-79
2022/08/19 11:31:39;;;;;;;860.25;795.00;;;35.40;99.90;;;;;;5151643;27;20038;-81
2022/08/19 11:34:07;;;;;;;814.50;753.42;;;34.80;99.90;;;;;;5153822;27;20153;-79
2022/08/19 11:36:34;;;;;;;845.00;781.25;;;33.90;99.90;;;;;;5154377;27;20045;-80
2022/08/19 11:39:01;;;;;;;1999.90;999.90;;;33.80;99.90;;;;;;5154643;27;20050;-79
2022/08/19 11:41:27;;;;;;;;;;;34.50;99.90;;;;;;5153163;27;20480;-79
2022/08/19 11:43:54;;;;;;;781.88;720.55;;;35.10;99.90;;;;;;5156874;27;19976;-79
2022/08/19 11:46:22;;;;;;;741.75;690.15;;;35.20;99.90;;;;;;5157350;27;20054;-80
2022/08/19 11:48:49;;;;;;;790.53;730.35;;;36.00;99.90;;;;;;5155694;27;20049;-80
2022/08/19 11:51:18;;;;;;;794.40;736.65;;;36.30;99.90;;;;;;5151111;27;20078;-79
2022/08/19 11:53:45;;;;;;;927.40;846.78;;;36.10;99.90;;;;;;5156595;27;20058;-79
2022/08/19 11:56:11;;;;;;;939.38;858.05;;;35.60;99.90;;;;;;5156807;27;20090;-78
2022/08/19 11:58:38;;;;;;;924.53;842.70;;;33.70;99.90;;;;;;5156812;27;20087;-79
2022/08/19 12:01:15;;;;;;;1428.47;889.75;;;33.30;99.90;;;;;;5152154;27;20035;-80
2022/08/19 12:03:43;;;;;;;1999.90;999.90;;;33.30;99.90;;;;;;5136252;27;20427;-80
2022/08/19 12:06:13;;;;;;;1999.90;999.90;;;33.70;99.90;;;;;;5130151;27;20039;-79
2022/08/19 12:08:42;;;;;;;1436.95;892.55;;;33.30;99.90;;;;;;5155847;27;20041;-79
2022/08/19 12:11:09;;;;;;;1999.90;999.90;;;33.10;99.90;;;;;;5155677;27;20047;-79
2022/08/19 12:13:36;;;;;;;;;;;33.10;99.90;;;;;;5155323;27;20053;-79
2022/08/19 12:16:12;;;;;;;893.60;817.28;;;32.70;99.90;;;;;;5138049;27;19919;-79
2022/08/19 12:18:43;;;;;;;1999.90;999.90;;;31.60;99.90;;;;;;5155775;27;20065;-80
2022/08/19 12:21:10;;;;;;;1178.38;868.90;;;31.70;99.90;;;;;;5131347;27;20106;-78
2022/08/19 12:23:37;;;;;;;;;;;31.80;99.90;;;;;;5155950;27;20054;-79
2022/08/19 12:26:03;;;;;;;1618.90;969.47;;;31.80;99.90;;;;;;5155352;27;20374;-80
2022/08/19 12:28:30;;;;;;;1999.90;999.90;;;31.80;99.90;;;;;;5153579;27;20042;-79
2022/08/19 12:30:56;;;;;;;916.95;831.53;;;31.80;99.90;;;;;;5137514;27;20078;-79